Time;durP1;ratioP1;P1;durP2;ratioP2;P2;SDS_P1;SDS_P2;PMS_P1;PMS_P2;Temp;Humidity;BMP_temperature;BMP_pressure;BME280_temperature;BME280_humidity;BME280_pressure;Samples;Min_cycle;Max_cycle;Signal;HPM_P1;HPM_P2
2022/03/24 00:00:42;;;;;;;;;40.25;33.25;;;;;16.81;32.72;99361.75;4908555;28;104064;-78
2022/03/24 00:03:09;;;;;;;;;38.25;31.25;;;;;16.79;33.22;99357.59;4909857;28;102633;-78
2022/03/24 00:05:39;;;;;;;;;39.00;30.75;;;;;16.78;32.54;99362.22;4906124;28;102370;-78
2022/03/24 00:08:06;;;;;;;;;39.25;32.25;;;;;16.77;32.25;99359.69;4912712;28;109749;-78
2022/03/24 00:10:33;;;;;;;;;37.00;33.25;;;;;16.78;33.04;99364.94;4907345;28;103691;-78
2022/03/24 00:13:00;;;;;;;;;42.25;32.00;;;;;16.77;32.59;99366.00;4913764;28;102794;-79
2022/03/24 00:15:27;;;;;;;;;44.25;33.00;;;;;16.79;32.76;99357.59;4898537;28;102038;-78
2022/03/24 00:17:54;;;;;;;;;48.25;35.25;;;;;16.78;32.80;99355.91;4900460;28;102542;-78
2022/03/24 00:20:21;;;;;;;;;42.25;32.25;;;;;16.76;32.63;99353.38;4894618;28;109013;-78
2022/03/24 00:22:49;;;;;;;;;40.00;33.50;;;;;16.77;32.35;99356.97;4899775;28;102305;-78
2022/03/24 00:25:16;;;;;;;;;40.75;34.00;;;;;16.75;32.54;99346.25;4898648;28;102939;-78
2022/03/24 00:27:43;;;;;;;;;40.00;34.00;;;;;16.75;32.66;99357.16;4906418;28;103079;-78
2022/03/24 00:30:10;;;;;;;;;38.75;32.75;;;;;16.75;33.07;99348.97;4902184;28;104062;-78
2022/03/24 00:32:37;;;;;;;;;39.75;32.25;;;;;16.73;32.92;99344.81;4904967;28;102426;-78
2022/03/24 00:35:05;;;;;;;;;39.25;31.75;;;;;16.72;32.89;99359.50;4896670;28;102260;-78
2022/03/24 00:37:32;;;;;;;;;36.00;32.25;;;;;16.70;32.79;99351.56;4896780;28;102244;-78
2022/03/24 00:40:06;;;;;;;;;35.50;30.00;;;;;16.70;32.39;99351.56;4895936;28;104189;-78
2022/03/24 00:42:37;;;;;;;;;36.25;29.75;;;;;16.68;32.38;99340.00;4894783;28;103114;-78
2022/03/24 00:45:07;;;;;;;;;35.50;32.00;;;;;16.67;32.76;99346.53;4898703;28;102605;-79
2022/03/24 00:47:36;;;;;;;;;37.75;33.50;;;;;16.67;32.94;99359.34;4902797;28;102211;-78
2022/03/24 00:50:08;;;;;;;;;40.25;32.00;;;;;16.67;32.61;99354.72;4904221;28;104169;-78
2022/03/24 00:52:41;;;;;;;;;38.75;32.25;;;;;16.67;32.84;99348.41;4896628;28;102489;-78
2022/03/24 00:55:13;;;;;;;;;46.75;36.00;;;;;16.67;32.90;99343.78;4898972;28;102210;-78
2022/03/24 00:57:40;;;;;;;;;37.50;30.75;;;;;16.66;33.15;99344.03;4897029;28;104245;-78
2022/03/24 01:00:09;;;;;;;;;34.00;32.25;;;;;16.65;32.85;99343.19;4902350;28;104160;-78
2022/03/24 01:02:37;;;;;;;;;40.75;32.25;;;;;16.64;32.73;99335.22;4894237;28;102447;-78
2022/03/24 01:05:06;;;;;;;;;38.25;32.25;;;;;16.64;32.19;99344.25;4896938;28;102531;-78
2022/03/24 01:07:34;;;;;;;;;38.25;32.00;;;;;16.62;32.62;99345.50;4898136;28;103309;-79
2022/03/24 01:10:05;;;;;;;;;43.00;34.50;;;;;16.61;32.26;99347.44;4902695;28;105504;-78
2022/03/24 01:12:34;;;;;;;;;40.00;32.00;;;;;16.61;32.92;99350.16;4903951;28;102466;-78
2022/03/24 01:15:02;;;;;;;;;39.00;34.00;;;;;16.59;32.70;99346.81;4900598;28;102590;-78
2022/03/24 01:17:29;;;;;;;;;40.25;32.75;;;;;16.58;32.99;99341.56;4903332;28;102664;-78
2022/03/24 01:19:57;;;;;;;;;37.50;32.00;;;;;16.57;32.87;99337.16;4905428;28;104201;-78
2022/03/24 01:22:24;;;;;;;;;39.25;33.00;;;;;16.56;32.47;99340.94;4908459;28;102622;-78
2022/03/24 01:24:51;;;;;;;;;40.25;33.50;;;;;16.55;32.94;99342.81;4905077;28;102366;-78
2022/03/24 01:27:19;;;;;;;;;40.50;32.25;;;;;16.56;33.04;99335.47;4903514;28;103196;-78
2022/03/24 01:29:46;;;;;;;;;40.25;32.00;;;;;16.56;32.96;99336.31;4900411;28;104687;-78
2022/03/24 01:32:13;;;;;;;;;26.75;24.25;;;;;16.56;33.07;99332.75;4899991;28;102678;-78
2022/03/24 01:34:40;;;;;;;;;43.00;33.25;;;;;16.55;32.87;99326.44;4897360;28;102100;-78
2022/03/24 01:37:07;;;;;;;;;39.00;32.50;;;;;16.54;32.61;99319.28;4917464;28;102704;-78
2022/03/24 01:39:34;;;;;;;;;40.25;33.00;;;;;16.55;32.92;99323.72;4894857;28;104099;-78
2022/03/24 01:42:01;;;;;;;;;39.00;32.25;;;;;16.53;32.88;99326.66;4895239;28;102560;-78
2022/03/24 01:44:28;;;;;;;;;40.75;32.25;;;;;16.51;32.93;99320.59;4904083;28;102519;-78
2022/03/24 01:47:11;;;;;;;;;34.75;31.75;;;;;16.50;33.03;99316.19;4902837;28;102232;-78
2022/03/24 01:49:40;;;;;;;;;36.50;32.75;;;;;16.49;32.46;99314.50;4905453;28;108946;-78
2022/03/24 01:52:12;;;;;;;;;40.50;31.50;;;;;16.49;32.81;99319.97;4902028;28;102456;-78
2022/03/24 01:54:44;;;;;;;;;36.50;31.00;;;;;16.48;32.31;99315.56;4897524;28;102411;-78
2022/03/24 01:57:14;;;;;;;;;37.00;32.75;;;;;16.47;33.05;99300.25;4899405;28;102558;-78
2022/03/24 01:59:41;;;;;;;;;37.50;32.50;;;;;16.43;32.49;99307.22;4894579;28;103138;-78
2022/03/24 02:02:09;;;;;;;;;38.75;33.50;;;;;16.43;33.16;99314.56;4885835;28;104079;-78
2022/03/24 02:04:36;;;;;;;;;37.00;30.75;;;;;16.43;33.00;99311.84;4888360;28;102735;-78
2022/03/24 02:07:07;;;;;;;;;38.00;33.75;;;;;16.44;32.48;99321.69;4891903;28;104609;-78
2022/03/24 02:09:34;;;;;;;;;35.75;30.75;;;;;16.43;32.77;99318.13;4886060;28;103724;-78
2022/03/24 02:12:04;;;;;;;;;42.25;32.00;;;;;16.44;32.50;99327.13;4896221;28;102727;-78
2022/03/24 02:14:31;;;;;;;;;38.50;34.00;;;;;16.44;32.65;99327.13;4897692;28;103537;-79
2022/03/24 02:16:58;;;;;;;;;44.50;33.00;;;;;16.43;32.83;99317.28;4903213;28;102642;-78
2022/03/24 02:19:26;;;;;;;;;42.25;33.00;;;;;16.42;32.95;99323.81;4901168;28;106437;-78
2022/03/24 02:21:54;;;;;;;;;47.25;34.00;;;;;16.41;32.63;99320.25;4900759;28;102345;-78
2022/03/24 02:24:25;;;;;;;;;38.50;33.50;;;;;16.41;33.16;99330.31;4900625;28;102646;-78
2022/03/24 02:26:54;;;;;;;;;37.50;31.25;;;;;16.39;32.43;99333.25;4901109;28;102185;-78
2022/03/24 02:29:25;;;;;;;;;37.50;32.25;;;;;16.37;32.77;99331.81;4898358;28;104095;-78
2022/03/24 02:31:52;;;;;;;;;39.75;33.00;;;;;16.38;32.93;99338.97;4893020;28;102301;-78
2022/03/24 02:37:10;;;;;;;;;35.75;31.00;;;;;16.34;32.37;99337.72;4891016;28;103330;-78
2022/03/24 02:39:39;;;;;;;;;38.75;32.00;;;;;16.35;33.22;99344.84;4895242;28;104167;-78
2022/03/24 02:42:07;;;;;;;;;36.50;32.25;;;;;16.34;32.69;99348.66;4897629;28;102366;-78
2022/03/24 02:44:34;;;;;;;;;31.25;29.50;;;;;16.33;32.95;99358.72;4900490;28;103424;-78
2022/03/24 02:47:03;;;;;;;;;39.00;31.00;;;;;16.33;32.94;99358.72;4899127;28;102523;-78
2022/03/24 02:49:30;;;;;;;;;42.00;34.00;;;;;16.33;32.54;99347.81;4891712;28;104439;-78
2022/03/24 02:51:59;;;;;;;;;40.25;32.75;;;;;16.33;32.70;99352.44;4896205;28;105030;-78
2022/03/24 02:54:26;;;;;;;;;35.00;31.75;;;;;16.33;33.05;99358.72;4903124;28;102802;-78
2022/03/24 02:56:54;;;;;;;;;37.50;31.25;;;;;16.32;32.91;99362.50;4907619;28;103176;-78
2022/03/24 02:59:21;;;;;;;;;41.25;34.75;;;;;16.30;32.91;99364.59;4900791;28;104398;-77
2022/03/24 03:01:53;;;;;;;;;36.50;31.75;;;;;16.30;32.81;99366.53;4910096;28;105131;-78
2022/03/24 03:04:20;;;;;;;;;40.25;34.00;;;;;16.30;32.48;99363.78;4909728;28;102231;-78
2022/03/24 03:06:47;;;;;;;;;35.00;32.00;;;;;16.29;33.16;99364.84;4903056;28;102503;-78
2022/03/24 03:09:16;;;;;;;;;39.00;30.75;;;;;16.28;33.10;99371.34;4897010;28;103460;-78
2022/03/24 03:11:46;;;;;;;;;40.25;32.75;;;;;16.27;32.56;99375.13;4903801;28;103124;-78
2022/03/24 03:14:15;;;;;;;;;40.75;32.75;;;;;16.26;32.77;99378.91;4895980;28;102342;-78
2022/03/24 03:16:42;;;;;;;;;36.75;32.75;;;;;16.24;32.46;99379.13;4904714;28;102372;-78
2022/03/24 03:19:09;;;;;;;;;37.00;32.75;;;;;16.24;32.85;99378.31;4899405;28;104301;-78
2022/03/24 03:21:36;;;;;;;;;38.25;32.75;;;;;16.23;32.86;99379.34;4901169;28;103531;-78
2022/03/24 03:24:04;;;;;;;;;37.25;32.00;;;;;16.22;32.99;99377.66;4898396;28;105095;-78
2022/03/24 03:26:31;;;;;;;;;36.75;32.75;;;;;16.22;32.95;99388.59;4902656;28;102518;-78
2022/03/24 03:28:58;;;;;;;;;35.00;31.00;;;;;16.22;32.32;99372.22;4904372;28;104230;-79
2022/03/24 03:31:25;;;;;;;;;34.00;32.25;;;;;16.23;32.97;99380.19;4900932;28;102661;-78
2022/03/24 03:33:53;;;;;;;;;37.50;33.75;;;;;16.23;33.06;99382.06;4898066;28;102612;-78
2022/03/24 03:36:20;;;;;;;;;39.50;33.50;;;;;16.21;32.52;99381.47;4901210;28;104340;-78
2022/03/24 03:38:47;;;;;;;;;35.50;32.00;;;;;16.21;33.11;99387.75;4897000;28;105127;-78
2022/03/24 03:41:15;;;;;;;;;38.00;31.75;;;;;16.20;32.69;99387.97;4894406;28;102398;-78
2022/03/24 03:43:42;;;;;;;;;38.75;33.00;;;;;16.19;32.90;99389.88;4902049;28;102592;-78
2022/03/24 03:46:10;;;;;;;;;44.50;34.00;;;;;16.17;32.84;99389.22;4898535;28;102431;-78
2022/03/24 03:48:38;;;;;;;;;38.25;32.75;;;;;16.17;32.65;99383.78;4916543;28;104350;-78
2022/03/24 03:51:06;;;;;;;;;41.00;31.25;;;;;16.16;32.90;99387.59;4897095;28;102434;-78
2022/03/24 03:53:33;;;;;;;;;41.00;33.00;;;;;16.12;33.44;99388.25;4898843;28;102602;-78
2022/03/24 03:56:02;;;;;;;;;37.00;31.25;;;;;16.14;33.03;99395.13;4906025;28;103674;-78
2022/03/24 03:58:29;;;;;;;;;36.25;33.25;;;;;16.12;33.01;99394.50;4898491;28;104452;-78
2022/03/24 04:00:56;;;;;;;;;43.25;33.75;;;;;16.12;32.53;99393.69;4908750;28;103742;-78
2022/03/24 04:03:31;;;;;;;;;40.00;31.00;;;;;16.13;33.02;99395.34;4912159;28;102565;-78
2022/03/24 04:06:04;;;;;;;;;38.25;33.00;;;;;16.12;32.63;99399.97;4925641;28;102606;-78
2022/03/24 04:08:31;;;;;;;;;41.25;33.50;;;;;16.12;33.11;99399.16;4902216;28;108730;-78
2022/03/24 04:10:59;;;;;;;;;44.00;34.00;;;;;16.13;32.62;99403.53;4904184;28;103432;-78
2022/03/24 04:13:26;;;;;;;;;45.75;34.25;;;;;16.12;32.74;99407.34;4915972;28;102764;-78
2022/03/24 04:15:54;;;;;;;;;37.75;31.00;;;;;16.11;32.56;99409.22;4904538;28;102313;-78
2022/03/24 04:18:22;;;;;;;;;34.50;31.00;;;;;16.10;33.14;99401.25;4909161;28;104233;-78
2022/03/24 04:20:49;;;;;;;;;37.50;33.00;;;;;16.11;33.01;99405.66;4903516;28;103391;-78
2022/03/24 04:23:17;;;;;;;;;42.75;34.00;;;;;16.08;32.58;99409.63;4897681;28;102753;-78
2022/03/24 04:25:45;;;;;;;;;37.00;32.25;;;;;16.08;33.08;99410.47;4904569;28;102914;-78
2022/03/24 04:28:12;;;;;;;;;36.50;31.00;;;;;16.06;33.15;99404.41;4901120;28;104324;-78
2022/03/24 04:30:39;;;;;;;;;33.00;31.00;;;;;16.06;33.18;99411.75;4894415;28;102365;-78
2022/03/24 04:33:06;;;;;;;;;39.50;32.00;;;;;16.03;32.82;99413.00;4895470;28;102429;-78
2022/03/24 04:35:33;;;;;;;;;35.50;31.50;;;;;16.02;32.94;99408.63;4896459;28;102274;-78
2022/03/24 04:38:00;;;;;;;;;37.50;33.25;;;;;16.01;33.22;99426.06;4898300;28;104448;-78
2022/03/24 04:40:28;;;;;;;;;39.25;33.00;;;;;16.03;32.67;99418.47;4894137;28;102540;-78
2022/03/24 04:42:55;;;;;;;;;38.00;33.25;;;;;16.02;32.75;99416.81;4896526;28;112731;-78
2022/03/24 04:45:22;;;;;;;;;42.75;33.00;;;;;16.02;32.58;99419.53;4890728;28;102303;-78
2022/03/24 04:47:50;;;;;;;;;37.50;34.00;;;;;16.03;32.88;99423.09;4886823;28;104163;-78
2022/03/24 04:50:19;;;;;;;;;37.00;31.25;;;;;16.04;32.61;99419.31;4892677;28;103249;-78
2022/03/24 04:52:47;;;;;;;;;40.25;34.00;;;;;16.02;32.71;99422.28;4897886;28;102892;-78
2022/03/24 04:55:14;;;;;;;;;41.50;33.50;;;;;16.02;32.88;99416.81;4902992;28;102542;-76
2022/03/24 04:57:42;;;;;;;;;41.50;33.25;;;;;16.02;32.78;99416.81;4908701;28;104605;-78
2022/03/24 05:00:14;;;;;;;;;38.00;33.00;;;;;16.01;32.74;99428.78;4899831;28;102650;-78
2022/03/24 05:02:42;;;;;;;;;46.00;34.75;;;;;16.01;32.45;99417.03;4897760;28;103451;-78
2022/03/24 05:05:09;;;;;;;;;29.25;28.00;;;;;15.99;32.91;99417.22;4900930;28;102613;-77
2022/03/24 05:07:37;;;;;;;;;37.75;30.25;;;;;15.98;32.93;99422.91;4897381;28;104245;-78
2022/03/24 05:10:05;;;;;;;;;37.75;33.25;;;;;15.97;33.00;99411.16;4893262;28;102780;-78
2022/03/24 05:12:32;;;;;;;;;29.50;25.25;;;;;15.97;32.77;99416.63;4893815;28;102679;-78
2022/03/24 05:14:59;;;;;;;;;44.00;31.75;;;;;15.95;32.81;99416.00;4903215;28;102650;-78
2022/03/24 05:17:26;;;;;;;;;39.75;32.00;;;;;15.97;32.55;99419.34;4898243;28;109051;-78
2022/03/24 05:19:53;;;;;;;;;41.75;33.00;;;;;15.97;32.80;99429.44;4898470;28;104471;-78
2022/03/24 05:22:20;;;;;;;;;39.00;32.75;;;;;15.95;32.99;99426.06;4899025;28;102378;-78
2022/03/24 05:24:47;;;;;;;;;37.75;31.50;;;;;15.95;32.79;99426.91;4904037;28;102467;-78
2022/03/24 05:27:14;;;;;;;;;33.25;31.25;;;;;15.95;32.48;99432.34;4913509;28;104544;-78
2022/03/24 05:29:42;;;;;;;;;38.25;32.75;;;;;15.93;32.92;99431.75;4898745;28;103965;-78
2022/03/24 05:32:11;;;;;;;;;36.75;31.75;;;;;15.94;32.70;99440.78;4896030;28;102524;-78
2022/03/24 05:34:41;;;;;;;;;40.00;33.50;;;;;15.94;33.10;99441.59;4897276;28;102661;-78
2022/03/24 05:37:09;;;;;;;;;38.25;31.00;;;;;15.93;32.82;99439.94;4898399;28;102986;-78
2022/03/24 05:39:36;;;;;;;;;33.75;31.00;;;;;15.93;32.65;99450.00;4877548;28;102689;-78
2022/03/24 05:42:03;;;;;;;;;36.00;31.00;;;;;15.92;32.88;99449.16;4896345;28;103223;-78
2022/03/24 05:44:30;;;;;;;;;37.00;33.50;;;;;15.92;33.34;99453.78;4888311;28;102314;-78
2022/03/24 05:46:58;;;;;;;;;38.75;32.00;;;;;15.91;32.92;99454.81;4882554;28;110917;-78
2022/03/24 05:49:26;;;;;;;;;33.25;30.00;;;;;15.91;32.97;99455.66;4916164;28;102261;-78
2022/03/24 05:51:53;;;;;;;;;38.00;32.50;;;;;15.89;32.54;99460.50;4895365;28;102681;-78
2022/03/24 05:54:20;;;;;;;;;37.25;30.50;;;;;15.90;33.22;99462.16;4906912;28;104431;-78
2022/03/24 05:56:49;;;;;;;;;39.00;31.50;;;;;15.90;32.80;99459.44;4902746;28;104089;-78
2022/03/24 05:59:16;;;;;;;;;44.00;32.75;;;;;15.90;32.67;99459.44;4903520;28;102591;-78
2022/03/24 06:01:44;;;;;;;;;35.00;31.50;;;;;15.89;32.86;99454.22;4813778;28;102440;-78
2022/03/24 06:04:15;;;;;;;;;33.00;30.25;;;;;15.88;32.98;99468.91;4903039;28;102796;-78
2022/03/24 06:06:42;;;;;;;;;39.00;32.75;;;;;15.89;32.73;99476.88;4880896;28;104085;-78
2022/03/24 06:09:09;;;;;;;;;33.00;29.75;;;;;15.89;33.00;99463.25;4896907;28;102295;-78
2022/03/24 06:11:37;;;;;;;;;36.75;31.00;;;;;15.89;32.57;99470.56;4898417;28;102660;-77
2022/03/24 06:14:04;;;;;;;;;33.00;29.75;;;;;15.88;33.17;99472.47;4901548;28;102472;-78
2022/03/24 06:16:32;;;;;;;;;35.00;30.00;;;;;15.89;33.13;99471.41;4889335;28;104146;-78
2022/03/24 06:19:00;;;;;;;;;37.25;32.50;;;;;15.90;32.96;99478.53;4900950;28;102475;-77
2022/03/24 06:21:26;;;;;;;;;31.00;28.25;;;;;15.90;32.79;99469.50;4904007;28;102523;-78
2022/03/24 06:23:54;;;;;;;;;33.75;29.50;;;;;15.90;33.07;99478.53;4908223;28;102656;-77
2022/03/24 06:26:23;;;;;;;;;32.25;29.75;;;;;15.89;33.10;99474.16;4896353;28;108929;-78
2022/03/24 06:28:52;;;;;;;;;31.75;28.50;;;;;15.88;33.21;99477.09;4916751;28;102774;-78
2022/03/24 06:31:20;;;;;;;;;32.50;29.75;;;;;15.89;32.99;99471.41;4900163;28;102480;-78
2022/03/24 06:33:48;;;;;;;;;33.75;30.75;;;;;15.88;32.91;99485.25;4926859;28;102726;-78
2022/03/24 06:36:15;;;;;;;;;31.50;30.25;;;;;15.89;32.90;99479.59;4896345;28;104096;-78
2022/03/24 06:38:42;;;;;;;;;31.75;29.75;;;;;15.87;33.09;99478.97;4904208;28;102623;-78
2022/03/24 06:41:09;;;;;;;;;32.50;28.75;;;;;15.87;32.82;99486.31;4897740;28;103299;-78
2022/03/24 06:43:36;;;;;;;;;34.00;31.00;;;;;15.87;32.75;99481.69;4906748;28;103445;-78
2022/03/24 06:46:06;;;;;;;;;31.50;28.25;;;;;15.89;32.94;99482.34;4901175;28;104117;-78
2022/03/24 06:48:33;;;;;;;;;32.25;28.00;;;;;15.89;33.01;99486.94;4891687;28;102442;-78
2022/03/24 06:51:00;;;;;;;;;37.50;31.50;;;;;15.89;32.87;99485.06;4895369;28;102384;-78
2022/03/24 06:53:27;;;;;;;;;34.50;31.00;;;;;15.90;32.67;99483.97;4897170;28;102373;-78
2022/03/24 06:55:54;;;;;;;;;34.75;30.75;;;;;15.89;33.06;99493.25;4899243;28;104242;-78
2022/03/24 06:58:22;;;;;;;;;33.75;28.75;;;;;15.89;32.97;99492.41;4897806;28;102314;-77
2022/03/24 07:00:49;;;;;;;;;28.75;27.25;;;;;15.90;33.04;99500.34;4903837;28;102608;-78
2022/03/24 07:03:16;;;;;;;;;31.75;28.50;;;;;15.90;32.84;99489.44;4904583;28;104026;-78
2022/03/24 07:05:43;;;;;;;;;29.75;26.25;;;;;15.91;32.90;99493.00;4897997;28;104099;-78
2022/03/24 07:08:11;;;;;;;;;32.50;29.00;;;;;15.89;32.96;99495.97;4900524;28;102970;-78
2022/03/24 07:10:44;;;;;;;;;30.50;26.25;;;;;15.89;32.95;99493.25;4897044;28;102590;-78
2022/03/24 07:13:11;;;;;;;;;36.00;28.50;;;;;15.90;33.12;99500.34;4892277;28;103519;-78
2022/03/24 07:15:38;;;;;;;;;34.25;27.00;;;;;15.92;33.12;99502.88;4907394;28;104214;-78
2022/03/24 07:18:05;;;;;;;;;31.75;27.75;;;;;15.90;33.14;99497.63;4900393;28;102428;-78
2022/03/24 07:20:34;;;;;;;;;30.75;27.25;;;;;15.90;32.89;99500.34;4892918;28;102170;-78
2022/03/24 07:23:03;;;;;;;;;26.25;24.00;;;;;15.92;32.89;99497.41;4901071;28;102576;-78
2022/03/24 07:25:31;;;;;;;;;26.75;24.00;;;;;15.89;33.33;99498.69;4894152;28;104174;-78
2022/03/24 07:27:58;;;;;;;;;32.00;27.00;;;;;15.92;32.83;99503.72;4902640;28;102499;-78
2022/03/24 07:30:26;;;;;;;;;31.00;26.25;;;;;15.93;32.74;99508.13;4906000;28;102684;-78
2022/03/24 07:32:58;;;;;;;;;27.75;24.50;;;;;15.93;32.68;99510.84;4902632;28;102708;-78
2022/03/24 07:35:25;;;;;;;;;28.25;24.00;;;;;15.94;32.58;99507.03;4895563;28;108847;-78
2022/03/24 07:37:53;;;;;;;;;31.00;25.25;;;;;15.94;32.71;99512.50;4918997;28;102423;-78
2022/03/24 07:40:22;;;;;;;;;32.25;25.50;;;;;15.96;33.09;99513.16;4917013;28;102574;-77
2022/03/24 07:42:49;;;;;;;;;32.25;24.75;;;;;15.95;32.92;99508.72;4891489;28;102755;-78
2022/03/24 07:45:16;;;;;;;;;28.50;24.25;;;;;15.96;32.82;99509.56;4886037;28;104090;-78
2022/03/24 07:48:09;;;;;;;;;24.50;23.00;;;;;15.95;32.73;99506.00;4893916;28;102377;-77
2022/03/24 07:50:37;;;;;;;;;30.25;25.50;;;;;15.98;33.30;99507.50;4918901;28;102867;-78
2022/03/24 07:53:17;;;;;;;;;28.75;22.75;;;;;16.00;32.80;99503.47;4897232;28;102758;-78
2022/03/24 07:55:45;;;;;;;;;27.00;24.00;;;;;16.02;32.90;99506.84;4890654;28;104192;-78
2022/03/24 07:58:13;;;;;;;;;26.75;23.25;;;;;16.05;33.14;99495.50;4887777;28;102579;-76
2022/03/24 08:00:41;;;;;;;;;22.25;20.25;;;;;16.08;32.83;99497.78;4888160;28;102251;-78
2022/03/24 08:03:19;;;;;;;;;28.25;24.25;;;;;16.11;33.21;99490.25;4891748;28;102598;-78
2022/03/24 08:05:47;;;;;;;;;26.25;22.25;;;;;16.14;32.67;99492.53;4899899;28;104171;-77
2022/03/24 08:08:14;;;;;;;;;27.75;21.25;;;;;16.17;32.35;99498.38;4894962;28;102555;-78
2022/03/24 08:10:42;;;;;;;;;28.25;22.00;;;;;16.21;32.99;99496.09;4886026;28;102380;-78
2022/03/24 08:13:10;;;;;;;;;24.25;18.25;;;;;16.24;33.22;99503.84;4889281;28;102756;-78
2022/03/24 08:15:37;;;;;;;;;27.00;21.50;;;;;16.27;32.98;99500.66;4893260;28;104136;-78
2022/03/24 08:18:05;;;;;;;;;25.75;22.25;;;;;16.29;32.64;99502.13;4893785;28;102454;-78
2022/03/24 08:20:32;;;;;;;;;20.75;16.75;;;;;16.31;33.23;99496.44;4898198;28;102436;-78
2022/03/24 08:23:00;;;;;;;;;24.00;21.00;;;;;16.33;32.65;99506.09;4893001;28;103162;-78
2022/03/24 08:25:27;;;;;;;;;26.00;21.75;;;;;16.35;32.90;99503.13;4903042;28;104581;-78
2022/03/24 08:27:54;;;;;;;;;17.25;16.75;;;;;16.37;33.04;99506.50;4899282;28;102205;-78
2022/03/24 08:30:21;;;;;;;;;19.50;18.50;;;;;16.38;32.92;99514.50;4882074;28;102289;-78
2022/03/24 08:32:48;;;;;;;;;22.00;17.50;;;;;16.40;32.88;99504.19;4894264;28;103326;-78
2022/03/24 08:35:16;;;;;;;;;23.25;20.00;;;;;16.39;32.78;99499.75;4884529;28;104049;-78
2022/03/24 08:37:43;;;;;;;;;21.25;18.75;;;;;16.42;32.53;99510.28;4892405;28;102596;-78
2022/03/24 08:40:10;;;;;;;;;22.00;20.25;;;;;16.43;33.08;99498.31;4896644;28;102304;-78
2022/03/24 08:42:38;;;;;;;;;20.25;16.75;;;;;16.44;33.02;99508.16;4900106;28;104995;-78
2022/03/24 08:45:07;;;;;;;;;17.75;16.75;;;;;16.46;32.76;99505.22;4887250;28;104297;-78
2022/03/24 08:47:34;;;;;;;;;28.25;19.75;;;;;16.47;32.92;99512.34;4890118;28;102487;-78
2022/03/24 08:50:03;;;;;;;;;19.75;17.00;;;;;16.49;33.16;99507.50;4894541;28;103779;-78
2022/03/24 08:52:30;;;;;;;;;17.25;17.00;;;;;16.51;32.31;99502.66;4904300;28;102607;-79
2022/03/24 08:54:57;;;;;;;;;21.00;17.75;;;;;16.50;33.15;99506.44;4904687;28;104339;-78
2022/03/24 08:57:27;;;;;;;;;19.50;17.50;;;;;16.51;32.41;99502.66;4892208;28;102395;-78
2022/03/24 09:00:00;;;;;;;;;23.50;20.75;;;;;16.52;32.65;99515.28;4898541;28;102643;-78
2022/03/24 09:02:27;;;;;;;;;20.50;18.50;;;;;16.53;33.07;99508.72;4894209;28;102671;-78
2022/03/24 09:04:55;;;;;;;;;20.25;18.25;;;;;16.53;32.87;99506.84;4901037;28;108910;-78
2022/03/24 09:07:34;;;;;;;;;22.00;18.25;;;;;16.53;32.89;99506.84;4907210;28;102216;-78
2022/03/24 09:10:05;;;;;;;;;17.50;16.50;;;;;16.54;33.11;99507.69;4892260;28;102294;-78
2022/03/24 09:12:32;;;;;;;;;23.00;19.00;;;;;16.53;32.64;99504.13;4899315;28;102215;-78
2022/03/24 09:14:59;;;;;;;;;15.75;14.00;;;;;16.54;32.91;99507.69;4902013;28;104003;-78
2022/03/24 09:17:26;;;;;;;;;21.25;19.00;;;;;16.56;33.08;99502.00;4898600;28;102648;-78
2022/03/24 09:19:55;;;;;;;;;18.50;16.25;;;;;16.55;32.38;99503.91;4900207;28;102180;-78
2022/03/24 09:22:22;;;;;;;;;22.00;20.75;;;;;16.56;33.02;99508.31;4899876;28;102334;-78
2022/03/24 09:24:49;;;;;;;;;24.00;20.00;;;;;16.57;32.85;99506.44;4891564;28;104054;-78
2022/03/24 09:27:16;;;;;;;;;20.25;19.25;;;;;16.56;32.56;99491.94;4899267;28;102241;-78
2022/03/24 09:29:43;;;;;;;;;22.25;18.75;;;;;16.58;32.84;99508.97;4895125;28;104013;-78
2022/03/24 09:32:12;;;;;;;;;23.75;20.00;;;;;16.59;32.75;99507.06;4900458;28;102763;-78
2022/03/24 09:34:40;;;;;;;;;19.75;18.00;;;;;16.59;32.29;99505.19;4895584;28;103767;-78
2022/03/24 09:37:10;;;;;;;;;18.00;17.75;;;;;16.59;32.52;99505.19;4895989;28;103461;-78
2022/03/24 09:39:38;;;;;;;;;20.00;19.00;;;;;16.60;32.65;99500.56;4904229;28;102631;-78
2022/03/24 09:42:05;;;;;;;;;18.75;17.75;;;;;16.60;32.92;99504.13;4901187;28;102422;-78
2022/03/24 09:44:32;;;;;;;;;15.00;15.00;;;;;16.61;32.62;99511.28;4889465;28;103839;-78
2022/03/24 09:46:59;;;;;;;;;21.25;18.00;;;;;16.61;32.91;99508.53;4892962;28;102638;-78
2022/03/24 09:49:27;;;;;;;;;18.50;15.25;;;;;16.63;32.92;99514.59;4903993;28;103308;-78
2022/03/24 09:51:54;;;;;;;;;18.25;16.25;;;;;16.63;32.60;99505.56;4899595;28;102920;-78
2022/03/24 09:54:21;;;;;;;;;17.50;16.25;;;;;16.64;32.36;99502.63;4891407;28;104010;-77
2022/03/24 09:56:48;;;;;;;;;23.00;19.00;;;;;16.64;32.88;99510.81;4900993;28;105496;-78
2022/03/24 09:59:15;;;;;;;;;17.50;16.50;;;;;16.64;32.81;99508.09;4902692;28;102471;-78
2022/03/24 10:01:42;;;;;;;;;21.50;17.00;;;;;16.65;32.41;99507.03;4923207;28;103153;-78
2022/03/24 10:04:11;;;;;;;;;20.50;16.50;;;;;16.65;33.16;99498.84;4906480;28;104430;-78
2022/03/24 10:06:41;;;;;;;;;19.75;17.25;;;;;16.65;32.88;99498.00;4890096;28;102441;-78
2022/03/24 10:09:08;;;;;;;;;16.75;15.25;;;;;16.67;32.71;99506.81;4909300;28;103872;-78
2022/03/24 10:11:36;;;;;;;;;19.75;18.00;;;;;16.66;33.16;99494.22;4896337;28;102763;-78
2022/03/24 10:14:03;;;;;;;;;19.00;15.75;;;;;16.67;32.97;99502.19;4894603;28;104307;-78
2022/03/24 10:16:33;;;;;;;;;16.25;14.50;;;;;16.68;32.82;99506.59;4906347;28;102169;-78
2022/03/24 10:19:06;;;;;;;;;16.00;15.00;;;;;16.68;33.00;99498.41;4904846;28;102421;-78
2022/03/24 10:21:35;;;;;;;;;15.00;14.00;;;;;16.70;32.82;99495.47;4895047;28;102770;-78
2022/03/24 10:24:18;;;;;;;;;20.50;14.50;;;;;16.69;32.75;99500.09;4898755;28;104103;-78
2022/03/24 10:27:00;;;;;;;;;17.00;15.75;;;;;16.70;32.99;99495.47;4907639;28;102426;-78
2022/03/24 10:29:28;;;;;;;;;18.75;15.50;;;;;16.70;32.48;99496.31;4895224;28;102670;-78
2022/03/24 10:31:59;;;;;;;;;15.50;15.50;;;;;16.69;32.79;99483.72;4909132;28;102583;-78
2022/03/24 10:34:36;;;;;;;;;21.25;15.50;;;;;16.69;32.94;99489.16;4915241;28;109286;-78
2022/03/24 10:37:12;;;;;;;;;17.50;14.75;;;;;16.71;33.05;99484.31;4890625;28;102381;-78
2022/03/24 10:40:02;;;;;;;;;17.25;16.50;;;;;16.71;33.18;99487.03;4898207;28;102345;-78
2022/03/24 10:42:31;;;;;;;;;16.75;14.50;;;;;16.72;32.73;99482.41;4916590;28;103250;-78
2022/03/24 10:45:04;;;;;;;;;15.25;14.25;;;;;16.73;32.82;99490.41;4890861;28;108801;-78
2022/03/24 10:47:51;;;;;;;;;16.50;14.75;;;;;16.72;32.84;99475.06;4920096;28;102772;-78
2022/03/24 10:50:24;;;;;;;;;15.50;14.25;;;;;16.76;32.99;99479.03;4894726;28;102489;-78
2022/03/24 10:52:53;;;;;;;;;22.25;15.75;;;;;16.79;32.60;99477.78;4915566;28;102685;-78
2022/03/24 10:55:38;;;;;;;;;17.00;13.25;;;;;16.81;32.58;99478.38;4889248;28;103899;-78
2022/03/24 10:58:28;;;;;;;;;18.25;16.25;;;;;16.82;32.57;99469.97;4909127;28;102782;-78
2022/03/24 11:00:57;;;;;;;;;15.75;13.75;;;;;16.84;32.99;99462.38;4895283;28;102538;-78
2022/03/24 11:03:24;;;;;;;;;19.00;16.75;;;;;16.87;32.66;99469.31;4906957;28;102930;-78
2022/03/24 11:05:51;;;;;;;;;19.50;14.75;;;;;16.89;32.90;99478.94;4899369;28;104208;-78
2022/03/24 11:08:19;;;;;;;;;17.00;15.75;;;;;16.89;32.18;99481.66;4897413;28;102277;-78
2022/03/24 11:10:49;;;;;;;;;14.50;13.75;;;;;16.91;33.10;99479.56;4897074;28;102613;-78
2022/03/24 11:13:46;;;;;;;;;17.50;16.25;;;;;16.91;32.31;99465.91;4910278;28;102286;-78
2022/03/24 11:16:14;;;;;;;;;16.75;13.00;;;;;16.95;33.06;99467.13;4903642;28;108503;-78
2022/03/24 11:18:42;;;;;;;;;15.00;13.00;;;;;16.98;32.22;99465.84;4897174;28;102445;-78